createdAt,value
2023-02-12T00:00:52.919Z,-0.50
2023-02-12T00:03:40.052Z,-0.50
2023-02-12T00:06:26.099Z,0.80
2023-02-12T00:09:11.796Z,-0.50
2023-02-12T00:11:57.506Z,-0.40
2023-02-12T00:14:43.014Z,-0.40
2023-02-12T00:17:28.730Z,-0.60
2023-02-12T00:20:14.181Z,0.80
2023-02-12T00:22:59.350Z,-0.60
2023-02-12T00:25:44.904Z,-0.40
2023-02-12T00:28:30.321Z,-0.50
2023-02-12T00:31:19.300Z,-0.50
2023-02-12T00:34:04.913Z,-0.50
2023-02-12T00:36:50.478Z,-0.60
2023-02-12T00:39:38.078Z,-0.60
2023-02-12T00:42:23.769Z,-0.70
2023-02-12T00:45:09.713Z,-0.70
2023-02-12T00:47:55.271Z,-0.70
2023-02-12T00:50:43.722Z,-0.70
2023-02-12T00:53:29.853Z,-0.70
2023-02-12T00:56:15.579Z,-0.80
2023-02-12T00:59:00.894Z,-0.60
2023-02-12T01:01:46.184Z,-0.90
2023-02-12T01:04:31.836Z,-0.90
2023-02-12T01:07:17.686Z,-0.70
2023-02-12T01:10:03.032Z,-0.60
2023-02-12T01:12:49.281Z,-1.00
2023-02-12T01:15:34.921Z,-0.90
2023-02-12T01:18:20.467Z,-0.90
2023-02-12T01:21:24.164Z,-1.00
2023-02-12T01:24:10.008Z,-1.00
2023-02-12T01:26:58.175Z,-0.70
2023-02-12T01:29:44.713Z,-0.90
2023-02-12T01:32:29.983Z,-0.90
2023-02-12T01:35:15.546Z,-0.50
2023-02-12T01:38:00.735Z,-0.90
2023-02-12T01:40:46.387Z,-0.90
2023-02-12T01:43:33.332Z,-0.90
2023-02-12T01:46:18.804Z,-1.10
2023-02-12T01:49:07.752Z,-1.10
2023-02-12T01:52:01.046Z,-1.10
2023-02-12T01:54:47.398Z,-0.60
2023-02-12T01:57:35.469Z,-1.20
2023-02-12T02:00:23.634Z,-0.70
2023-02-12T02:03:09.506Z,-1.20
2023-02-12T02:05:59.524Z,-1.20
2023-02-12T02:08:45.328Z,-1.20
2023-02-12T02:11:49.126Z,-1.30
2023-02-12T02:14:34.868Z,-1.40
2023-02-12T02:17:40.808Z,-1.40
2023-02-12T02:21:10.766Z,-1.30
2023-02-12T02:24:31.914Z,-1.30
2023-02-12T02:27:30.107Z,-1.30
2023-02-12T02:30:30.723Z,-1.30
2023-02-12T02:33:30.812Z,-1.40
2023-02-12T02:37:02.428Z,-1.30
2023-02-12T02:40:02.961Z,-1.30
2023-02-12T02:42:48.601Z,-1.40
2023-02-12T02:45:41.683Z,-1.50
2023-02-12T02:48:34.604Z,-1.50
2023-02-12T02:51:37.306Z,-1.50
2023-02-12T02:54:36.206Z,-1.40
2023-02-12T02:57:29.765Z,-1.50
2023-02-12T03:00:26.961Z,-1.40
2023-02-12T03:03:25.846Z,-1.40
2023-02-12T03:06:18.599Z,-1.50
2023-02-12T03:09:13.275Z,-1.50
2023-02-12T03:12:04.256Z,-1.50
2023-02-12T03:15:10.281Z,-0.10
2023-02-12T03:17:58.265Z,-1.50
2023-02-12T03:20:53.729Z,-1.50
2023-02-12T03:24:30.335Z,-1.40
2023-02-12T03:27:38.758Z,-1.70
2023-02-12T03:30:33.951Z,-1.70
2023-02-12T03:33:37.991Z,-1.70
2023-02-12T03:37:01.577Z,-1.70
2023-02-12T03:39:49.756Z,-1.80
2023-02-12T03:42:46.304Z,-1.50
2023-02-12T03:45:34.853Z,-2.00
2023-02-12T03:48:36.504Z,-1.80
2023-02-12T03:51:38.659Z,-1.80
2023-02-12T03:54:24.605Z,-1.70
2023-02-12T03:57:20.147Z,-1.80
2023-02-12T04:00:10.670Z,-1.70
2023-02-12T04:02:56.857Z,-1.90
2023-02-12T04:05:41.891Z,-1.90
2023-02-12T04:08:28.428Z,-1.90
2023-02-12T04:11:38.215Z,-2.10
2023-02-12T04:14:38.813Z,-2.20
2023-02-12T04:18:18.242Z,-2.00
2023-02-12T04:21:11.197Z,-2.00
2023-02-12T04:24:20.717Z,-1.90
2023-02-12T04:27:19.107Z,-1.80
2023-02-12T04:30:33.807Z,-1.80
2023-02-12T04:33:23.075Z,-2.00
2023-02-12T04:36:24.244Z,-1.40
2023-02-12T04:39:15.242Z,-2.00
2023-02-12T04:42:02.044Z,0.30
2023-02-12T04:44:48.012Z,-2.30
2023-02-12T04:47:33.475Z,-0.30
2023-02-12T04:50:20.213Z,-2.10
2023-02-12T04:53:06.730Z,-1.70
2023-02-12T04:55:52.355Z,-2.00
2023-02-12T04:58:37.871Z,-2.00
2023-02-12T05:01:23.501Z,-2.00
2023-02-12T05:04:11.752Z,-2.00
2023-02-12T05:06:57.317Z,-2.20
2023-02-12T05:09:42.931Z,-2.00
2023-02-12T05:12:28.429Z,-2.00
2023-02-12T05:15:14.089Z,-0.30
2023-02-12T05:17:59.969Z,-2.10
2023-02-12T05:20:45.455Z,-2.10
2023-02-12T05:23:33.788Z,-2.20
2023-02-12T05:26:21.987Z,-2.20
2023-02-12T05:29:07.372Z,-2.30
2023-02-12T05:31:53.071Z,-2.10
2023-02-12T05:34:38.859Z,-2.20
2023-02-12T05:37:24.290Z,-2.20
2023-02-12T05:40:10.363Z,-2.30
2023-02-12T05:42:56.141Z,-2.20
2023-02-12T05:45:44.258Z,-2.20
2023-02-12T05:48:30.100Z,-2.10
2023-02-12T05:51:21.725Z,-2.20
2023-02-12T05:54:08.377Z,-2.30
2023-02-12T05:56:53.752Z,-2.50
2023-02-12T05:59:39.854Z,-2.50
2023-02-12T06:02:25.686Z,-2.60
2023-02-12T06:05:10.991Z,-2.40
2023-02-12T06:07:56.253Z,-2.30
2023-02-12T06:10:41.731Z,-2.50
2023-02-12T06:13:27.340Z,-2.50
2023-02-12T06:16:19.118Z,-2.30
2023-02-12T06:19:06.324Z,-2.30
2023-02-12T06:21:51.710Z,-2.50
2023-02-12T06:24:37.407Z,-2.30
2023-02-12T06:27:22.846Z,-2.30
2023-02-12T06:30:08.964Z,-2.30
2023-02-12T06:32:54.597Z,-2.20
2023-02-12T06:35:39.952Z,-2.20
2023-02-12T06:38:25.392Z,-2.40
2023-02-12T06:41:11.318Z,-2.30
2023-02-12T06:43:56.328Z,-2.40
2023-02-12T06:46:42.369Z,-2.30
2023-02-12T06:49:27.643Z,-2.30
2023-02-12T06:52:14.285Z,-2.20
2023-02-12T06:54:59.985Z,-2.40
2023-02-12T06:57:45.579Z,-2.30
2023-02-12T07:00:31.120Z,-2.40
2023-02-12T07:03:16.524Z,-2.40
2023-02-12T07:06:03.958Z,-1.20
2023-02-12T07:08:49.445Z,-2.20
2023-02-12T07:11:38.292Z,-2.30
2023-02-12T07:14:24.013Z,-2.30
2023-02-12T07:17:10.153Z,-2.20
2023-02-12T07:19:55.620Z,-2.10
2023-02-12T07:22:41.151Z,-2.10
2023-02-12T07:25:26.645Z,-2.20
2023-02-12T07:28:12.269Z,-2.10
2023-02-12T07:30:57.744Z,-2.00
2023-02-12T07:33:43.281Z,-1.90
2023-02-12T07:36:31.508Z,-1.60
2023-02-12T07:39:17.479Z,-1.40
2023-02-12T07:42:03.204Z,-1.30
2023-02-12T07:44:48.942Z,-1.10
2023-02-12T07:47:35.810Z,-0.90
2023-02-12T07:50:21.375Z,-0.80
2023-02-12T07:53:07.128Z,-0.60
2023-02-12T07:55:52.615Z,-0.40
2023-02-12T07:58:39.483Z,-0.20
2023-02-12T08:01:32.858Z,0.00
2023-02-12T08:04:23.215Z,0.10
2023-02-12T08:07:08.563Z,0.30
2023-02-12T08:09:54.014Z,0.30
2023-02-12T08:12:39.983Z,0.30
2023-02-12T08:15:25.381Z,0.40
2023-02-12T08:18:10.978Z,0.50
2023-02-12T08:21:02.670Z,0.60
2023-02-12T08:23:51.928Z,0.80
2023-02-12T08:26:39.234Z,0.90
2023-02-12T08:29:28.523Z,0.90
2023-02-12T08:32:14.434Z,1.10
2023-02-12T08:34:59.985Z,1.20
2023-02-12T08:37:45.589Z,1.20
2023-02-12T08:40:31.079Z,1.20
2023-02-12T08:43:16.678Z,1.90
2023-02-12T08:46:07.049Z,1.60
2023-02-12T08:48:58.492Z,1.40
2023-02-12T08:51:48.592Z,1.60
2023-02-12T08:54:34.011Z,2.20
2023-02-12T08:57:19.581Z,1.40
2023-02-12T09:00:05.586Z,1.60
2023-02-12T09:02:50.892Z,1.80
2023-02-12T09:05:40.623Z,2.00
2023-02-12T09:08:26.002Z,1.80
2023-02-12T09:11:20.579Z,2.30
2023-02-12T09:14:10.832Z,2.20
2023-02-12T09:16:57.522Z,3.50
2023-02-12T09:19:42.830Z,2.20
2023-02-12T09:22:28.184Z,2.20
2023-02-12T09:25:13.747Z,2.50
2023-02-12T09:27:59.317Z,2.30
2023-02-12T09:30:45.141Z,2.30
2023-02-12T09:33:30.580Z,2.40
2023-02-12T09:36:17.187Z,3.80
2023-02-12T09:39:04.034Z,4.70
2023-02-12T09:42:12.052Z,2.80
2023-02-12T09:45:18.454Z,2.80
2023-02-12T09:48:28.374Z,3.10
2023-02-12T09:51:14.504Z,3.00
2023-02-12T09:54:21.224Z,4.10
2023-02-12T09:57:26.134Z,3.90
2023-02-12T10:00:18.289Z,3.40
2023-02-12T10:03:11.625Z,3.40
2023-02-12T10:06:05.591Z,3.60
2023-02-12T10:09:06.085Z,3.90
2023-02-12T10:11:55.064Z,4.30
2023-02-12T10:15:09.245Z,4.30
2023-02-12T10:17:59.478Z,4.60
2023-02-12T10:20:47.939Z,4.50
2023-02-12T10:24:05.837Z,4.70
2023-02-12T10:26:57.587Z,5.20
2023-02-12T10:29:45.255Z,5.50
2023-02-12T10:32:35.670Z,5.80
2023-02-12T10:35:23.664Z,5.80
2023-02-12T10:38:21.482Z,6.20
2023-02-12T10:41:06.922Z,6.10
2023-02-12T10:43:53.215Z,6.40
2023-02-12T10:46:38.795Z,6.20
2023-02-12T10:49:24.787Z,7.90
2023-02-12T10:52:35.459Z,6.30
2023-02-12T10:55:33.152Z,6.40
2023-02-12T10:58:21.913Z,6.80
2023-02-12T11:01:26.726Z,6.70
2023-02-12T11:04:30.296Z,6.50
2023-02-12T11:07:16.018Z,6.90
2023-02-12T11:10:01.807Z,7.30
2023-02-12T11:12:49.285Z,7.30
2023-02-12T11:15:47.952Z,7.00
2023-02-12T11:18:36.749Z,7.50
2023-02-12T11:21:23.663Z,7.80
2023-02-12T11:24:29.970Z,8.80
2023-02-12T11:27:28.731Z,9.40
2023-02-12T11:30:20.831Z,9.00
2023-02-12T11:33:24.443Z,8.60
2023-02-12T11:36:26.278Z,8.80
2023-02-12T11:39:24.685Z,9.00
2023-02-12T11:42:18.625Z,9.60
2023-02-12T11:45:04.853Z,10.10
2023-02-12T11:47:51.292Z,10.50
2023-02-12T11:50:37.403Z,10.90
2023-02-12T11:53:36.932Z,10.70
2023-02-12T11:56:22.621Z,10.50
2023-02-12T11:59:22.126Z,10.40
2023-02-12T12:02:36.092Z,9.90
2023-02-12T12:05:25.322Z,9.80
2023-02-12T12:08:18.070Z,10.10
2023-02-12T12:11:26.716Z,10.00
2023-02-12T12:14:31.475Z,10.10
2023-02-12T12:17:36.950Z,10.30
2023-02-12T12:20:27.311Z,10.30
2023-02-12T12:23:20.695Z,10.40
2023-02-12T12:26:13.236Z,12.10
2023-02-12T12:29:20.134Z,10.50
2023-02-12T12:32:06.546Z,10.30
2023-02-12T12:34:52.489Z,10.00
2023-02-12T12:37:50.716Z,10.50
2023-02-12T12:41:04.777Z,10.70
2023-02-12T12:44:14.882Z,10.40
2023-02-12T12:47:26.875Z,10.30
2023-02-12T12:50:54.420Z,10.30
2023-02-12T12:54:10.091Z,10.50
2023-02-12T12:57:04.294Z,10.80
2023-02-12T13:00:12.818Z,10.90
2023-02-12T13:03:28.886Z,11.60
2023-02-12T13:06:33.310Z,12.20
2023-02-12T13:09:46.176Z,12.00
2023-02-12T13:12:54.267Z,11.20
2023-02-12T13:15:58.596Z,11.90
2023-02-12T13:19:01.136Z,11.50
2023-02-12T13:21:56.396Z,11.70
2023-02-12T13:25:18.565Z,11.70
2023-02-12T13:28:05.982Z,11.90
2023-02-12T13:30:54.018Z,12.00
2023-02-12T13:33:47.455Z,12.20
2023-02-12T13:36:36.092Z,11.70
2023-02-12T13:39:38.877Z,11.70
2023-02-12T13:42:50.851Z,11.30
2023-02-12T13:46:04.194Z,11.40
2023-02-12T13:49:19.757Z,11.40
2023-02-12T13:52:11.443Z,11.50
2023-02-12T13:55:14.892Z,12.00
2023-02-12T13:58:42.792Z,12.00
2023-02-12T14:01:47.030Z,11.70
2023-02-12T14:04:37.735Z,12.10
2023-02-12T14:07:24.553Z,12.30
2023-02-12T14:10:20.653Z,12.00
2023-02-12T14:13:17.771Z,11.40
2023-02-12T14:16:19.851Z,12.50
2023-02-12T14:19:37.865Z,12.20
2023-02-12T14:22:26.543Z,11.90
2023-02-12T14:25:15.201Z,11.90
2023-02-12T14:28:18.232Z,12.50
2023-02-12T14:31:19.930Z,11.70
2023-02-12T14:34:05.461Z,11.90
2023-02-12T14:37:18.310Z,14.10
2023-02-12T14:40:34.885Z,12.20
2023-02-12T14:43:31.963Z,11.30
2023-02-12T14:46:23.566Z,11.60
2023-02-12T14:49:24.755Z,12.10
2023-02-12T14:52:12.750Z,12.30
2023-02-12T14:55:04.094Z,12.80
2023-02-12T14:57:50.046Z,13.30
2023-02-12T15:00:41.557Z,13.10
2023-02-12T15:03:50.981Z,12.50
2023-02-12T15:06:42.704Z,12.70
2023-02-12T15:09:39.099Z,12.30
2023-02-12T15:12:42.884Z,12.50
2023-02-12T15:15:34.093Z,12.50
2023-02-12T15:18:34.143Z,12.00
2023-02-12T15:21:29.354Z,11.90
2023-02-12T15:24:23.399Z,12.50
2023-02-12T15:27:13.064Z,12.10
2023-02-12T15:29:58.782Z,11.10
2023-02-12T15:32:47.761Z,12.70
2023-02-12T15:35:36.821Z,10.30
2023-02-12T15:38:29.418Z,10.20
2023-02-12T15:41:48.219Z,10.10
2023-02-12T15:44:35.375Z,9.90
2023-02-12T15:47:24.787Z,9.80
2023-02-12T15:50:14.929Z,9.90
2023-02-12T15:53:01.355Z,9.40
2023-02-12T15:55:48.656Z,10.20
2023-02-12T15:58:43.174Z,9.20
2023-02-12T16:01:31.705Z,9.20
2023-02-12T16:04:17.094Z,9.10
2023-02-12T16:07:03.099Z,9.10
2023-02-12T16:09:52.224Z,10.00
2023-02-12T16:12:39.932Z,9.10
2023-02-12T16:15:31.555Z,9.70
2023-02-12T16:18:25.541Z,8.70
2023-02-12T16:21:18.788Z,8.50
2023-02-12T16:24:18.449Z,8.60
2023-02-12T16:27:23.328Z,8.10
2023-02-12T16:30:26.960Z,8.10
2023-02-12T16:33:35.752Z,7.90
2023-02-12T16:36:22.669Z,7.80
2023-02-12T16:39:38.041Z,7.80
2023-02-12T16:42:29.464Z,7.70
2023-02-12T16:45:26.878Z,7.60
2023-02-12T16:48:23.524Z,7.60
2023-02-12T16:51:25.837Z,8.10
2023-02-12T16:54:34.767Z,7.40
2023-02-12T16:57:20.069Z,8.30
2023-02-12T17:00:10.551Z,7.00
2023-02-12T17:02:56.914Z,6.80
2023-02-12T17:05:43.745Z,6.70
2023-02-12T17:08:29.230Z,6.70
2023-02-12T17:11:17.722Z,6.50
2023-02-12T17:14:03.115Z,7.10
2023-02-12T17:16:49.329Z,6.40
2023-02-12T17:19:34.834Z,6.60
2023-02-12T17:22:23.319Z,6.20
2023-02-12T17:25:12.206Z,7.30
2023-02-12T17:27:58.061Z,6.10
2023-02-12T17:30:43.820Z,5.90
2023-02-12T17:33:29.445Z,5.80
2023-02-12T17:36:14.860Z,6.30
2023-02-12T17:39:01.176Z,5.70
2023-02-12T17:41:46.891Z,5.60
2023-02-12T17:44:32.646Z,5.50
2023-02-12T17:47:18.133Z,6.80
2023-02-12T17:50:03.287Z,5.20
2023-02-12T17:52:48.794Z,5.10
2023-02-12T17:55:37.776Z,5.10
2023-02-12T17:58:23.402Z,5.00
2023-02-12T18:01:11.390Z,4.90
2023-02-12T18:04:00.342Z,4.80
2023-02-12T18:06:46.314Z,6.90
2023-02-12T18:09:33.010Z,4.70
2023-02-12T18:12:18.809Z,4.70
2023-02-12T18:15:05.622Z,4.60
2023-02-12T18:17:50.903Z,4.70
2023-02-12T18:20:36.662Z,4.60
2023-02-12T18:23:21.929Z,4.30
2023-02-12T18:26:15.939Z,4.20
2023-02-12T18:29:01.388Z,4.20
2023-02-12T18:31:47.067Z,4.10
2023-02-12T18:34:32.942Z,4.10
2023-02-12T18:37:18.575Z,4.00
2023-02-12T18:40:04.048Z,4.10
2023-02-12T18:42:49.487Z,3.90
2023-02-12T18:45:34.805Z,4.10
2023-02-12T18:48:20.392Z,3.70
2023-02-12T18:51:07.996Z,3.50
2023-02-12T18:53:57.577Z,3.40
2023-02-12T18:56:44.658Z,3.00
2023-02-12T18:59:29.887Z,3.20
2023-02-12T19:02:15.876Z,3.10
2023-02-12T19:05:01.446Z,3.00
2023-02-12T19:07:46.812Z,3.00
2023-02-12T19:10:32.657Z,3.00
2023-02-12T19:13:18.345Z,3.00
2023-02-12T19:16:12.902Z,3.00
2023-02-12T19:19:00.018Z,3.10
2023-02-12T19:21:46.148Z,3.00
2023-02-12T19:24:45.622Z,2.80
2023-02-12T19:27:31.670Z,2.80
2023-02-12T19:30:17.358Z,2.70
2023-02-12T19:33:02.943Z,2.70
2023-02-12T19:35:51.490Z,2.70
2023-02-12T19:38:37.532Z,2.50
2023-02-12T19:41:24.771Z,2.40
2023-02-12T19:44:12.901Z,2.40
2023-02-12T19:46:59.496Z,2.30
2023-02-12T19:49:45.162Z,2.30
2023-02-12T19:52:30.831Z,2.70
2023-02-12T19:55:16.189Z,2.20
2023-02-12T19:58:01.789Z,2.10
2023-02-12T20:00:47.746Z,2.10
2023-02-12T20:03:33.117Z,2.10
2023-02-12T20:06:24.807Z,2.10
2023-02-12T20:09:12.136Z,2.00
2023-02-12T20:11:57.810Z,2.10
2023-02-12T20:14:43.173Z,1.90
2023-02-12T20:17:28.708Z,1.80
2023-02-12T20:20:14.289Z,1.80
2023-02-12T20:23:00.460Z,1.70
2023-02-12T20:25:46.509Z,1.70
2023-02-12T20:28:32.281Z,1.70
2023-02-12T20:31:21.712Z,1.60
2023-02-12T20:34:11.066Z,1.60
2023-02-12T20:36:56.384Z,1.50
2023-02-12T20:39:42.247Z,1.60
2023-02-12T20:42:27.598Z,1.60
2023-02-12T20:45:12.899Z,1.50
2023-02-12T20:47:58.305Z,1.50
2023-02-12T20:50:43.794Z,1.60
2023-02-12T20:53:30.400Z,1.40
2023-02-12T20:56:21.460Z,1.40
2023-02-12T20:59:07.625Z,1.40
2023-02-12T21:01:53.101Z,1.40
2023-02-12T21:04:38.323Z,1.40
2023-02-12T21:07:23.945Z,1.40
2023-02-12T21:10:09.938Z,1.30
2023-02-12T21:12:55.238Z,1.30
2023-02-12T21:15:40.887Z,1.40
2023-02-12T21:18:28.110Z,1.30
2023-02-12T21:21:19.261Z,1.20
2023-02-12T21:24:08.311Z,1.10
2023-02-12T21:26:54.881Z,1.00
2023-02-12T21:29:40.488Z,1.00
2023-02-12T21:32:25.694Z,1.00
2023-02-12T21:35:11.225Z,0.80
2023-02-12T21:37:56.419Z,0.90
2023-02-12T21:40:42.182Z,0.90
2023-02-12T21:43:27.730Z,0.90
2023-02-12T21:46:17.493Z,0.90
2023-02-12T21:49:04.257Z,0.90
2023-02-12T21:51:50.568Z,1.00
2023-02-12T21:54:35.891Z,0.80
2023-02-12T21:57:21.910Z,0.80
2023-02-12T22:00:07.992Z,0.80
2023-02-12T22:02:55.137Z,0.70
2023-02-12T22:05:40.487Z,1.70
2023-02-12T22:08:25.883Z,0.60
2023-02-12T22:11:13.220Z,0.60
2023-02-12T22:13:58.861Z,1.00
2023-02-12T22:16:45.016Z,0.70
2023-02-12T22:19:30.606Z,0.70
2023-02-12T22:22:16.231Z,0.70
2023-02-12T22:25:02.004Z,0.70
2023-02-12T22:27:47.360Z,0.60
2023-02-12T22:30:32.810Z,0.60
2023-02-12T22:33:18.067Z,0.30
2023-02-12T22:36:05.854Z,0.20
2023-02-12T22:38:52.618Z,0.30
2023-02-12T22:41:38.256Z,-1.30
2023-02-12T22:44:23.761Z,0.30
2023-02-12T22:47:09.116Z,0.20
2023-02-12T22:49:54.736Z,0.30
2023-02-12T22:52:40.283Z,0.20
2023-02-12T22:55:25.728Z,0.40
2023-02-12T22:58:11.931Z,0.30
2023-02-12T23:00:57.556Z,0.30
2023-02-12T23:03:44.002Z,0.20
2023-02-12T23:06:31.456Z,0.20
2023-02-12T23:09:19.249Z,0.10
2023-02-12T23:12:07.549Z,0.10
2023-02-12T23:14:52.877Z,0.20
2023-02-12T23:17:38.639Z,0.10
2023-02-12T23:20:24.042Z,0.10
2023-02-12T23:23:09.823Z,0.20
2023-02-12T23:25:55.620Z,0.20
2023-02-12T23:28:41.521Z,0.10
2023-02-12T23:31:27.312Z,0.10
2023-02-12T23:34:13.217Z,0.10
2023-02-12T23:36:58.884Z,0.00
2023-02-12T23:39:44.212Z,0.10
2023-02-12T23:42:29.980Z,0.10
2023-02-12T23:45:15.629Z,0.00
2023-02-12T23:48:01.384Z,-0.10
2023-02-12T23:50:49.637Z,-0.10
2023-02-12T23:53:35.353Z,-0.20
2023-02-12T23:56:20.792Z,0.00
2023-02-12T23:59:06.377Z,-0.20
